createdAt,value
2022-10-23T00:01:55.658Z,96242.22
2022-10-23T00:04:40.908Z,96242.03
2022-10-23T00:07:18.457Z,96250.00
2022-10-23T00:10:08.566Z,96239.69
2022-10-23T00:12:51.007Z,96253.41
2022-10-23T00:15:44.587Z,96241.72
2022-10-23T00:18:44.343Z,96237.38
2022-10-23T00:21:24.388Z,96240.06
2022-10-23T00:24:04.206Z,96240.22
2022-10-23T00:26:43.842Z,96239.22
2022-10-23T00:29:36.442Z,96249.19
2022-10-23T00:35:08.205Z,96241.66
2022-10-23T00:37:34.759Z,96242.31
2022-10-23T00:40:03.704Z,96233.56
2022-10-23T00:42:36.027Z,96229.13
2022-10-23T00:45:13.947Z,96234.59
2022-10-23T00:47:49.371Z,96249.88
2022-10-23T00:50:16.699Z,96249.25
2022-10-23T00:52:48.270Z,96237.63
2022-10-23T00:55:16.227Z,96222.75
2022-10-23T00:57:45.275Z,96243.97
2022-10-23T01:00:23.907Z,96246.50
2022-10-23T01:02:51.621Z,96234.84
2022-10-23T01:05:36.377Z,96234.75
2022-10-23T01:08:23.066Z,96238.25
2022-10-23T01:10:57.536Z,96232.91
2022-10-23T01:13:48.777Z,96227.38
2022-10-23T01:16:23.646Z,96220.44
2022-10-23T01:19:21.056Z,96225.25
2022-10-23T01:21:53.706Z,96222.38
2022-10-23T01:24:56.797Z,96217.94
2022-10-23T01:27:30.928Z,96227.91
2022-10-23T01:30:07.418Z,96216.38
2022-10-23T01:32:54.838Z,96219.81
2022-10-23T01:35:29.130Z,96208.94
2022-10-23T01:38:14.419Z,96209.56
2022-10-23T01:40:50.799Z,96219.16
2022-10-23T01:43:24.515Z,96221.38
2022-10-23T01:45:57.761Z,96209.59
2022-10-23T01:48:28.968Z,96228.50
2022-10-23T01:50:58.837Z,96215.75
2022-10-23T01:53:30.693Z,96227.66
2022-10-23T01:56:01.638Z,96213.34
2022-10-23T01:58:30.666Z,96218.25
2022-10-23T02:01:02.787Z,96157.59
2022-10-23T02:03:33.180Z,96198.25
2022-10-23T02:05:59.871Z,96198.16
2022-10-23T02:08:26.710Z,96156.66
2022-10-23T02:11:04.793Z,96186.72
2022-10-23T02:13:56.557Z,96184.69
2022-10-23T02:17:06.152Z,96181.81
2022-10-23T02:19:42.759Z,96176.59
2022-10-23T02:22:13.297Z,96166.72
2022-10-23T02:24:49.109Z,96168.09
2022-10-23T02:27:31.825Z,96168.72
2022-10-23T02:30:08.391Z,96137.13
2022-10-23T02:32:39.214Z,96164.03
2022-10-23T02:35:06.710Z,96165.97
2022-10-23T02:37:33.723Z,96197.03
2022-10-23T02:40:03.945Z,96149.94
2022-10-23T02:43:14.287Z,96156.66
2022-10-23T02:46:18.869Z,96154.34
2022-10-23T02:48:53.888Z,96157.78
2022-10-23T02:51:52.845Z,96159.88
2022-10-23T02:54:37.838Z,96137.78
2022-10-23T02:57:31.307Z,96146.72
2022-10-23T03:00:05.439Z,96137.03
2022-10-23T03:02:35.029Z,96139.34
2022-10-23T03:05:03.057Z,96120.44
2022-10-23T03:07:34.343Z,96143.56
2022-10-23T03:10:06.326Z,96138.44
2022-10-23T03:12:33.488Z,96137.75
2022-10-23T03:15:00.262Z,96151.50
2022-10-23T03:17:26.822Z,96141.28
2022-10-23T03:19:57.437Z,96133.59
2022-10-23T03:22:23.967Z,96158.59
2022-10-23T03:24:50.542Z,96131.03
2022-10-23T03:27:17.721Z,96138.50
2022-10-23T03:29:44.266Z,96140.53
2022-10-23T03:32:10.830Z,96132.34
2022-10-23T03:34:37.850Z,96121.44
2022-10-23T03:37:05.085Z,96095.63
2022-10-23T03:39:31.638Z,96117.56
2022-10-23T03:41:58.335Z,96110.94
2022-10-23T03:44:24.855Z,96116.94
2022-10-23T03:46:51.513Z,96134.25
2022-10-23T03:49:18.044Z,96134.88
2022-10-23T03:51:51.715Z,96114.59
2022-10-23T03:54:28.203Z,96136.25
2022-10-23T03:56:57.388Z,96122.88
2022-10-23T03:59:26.460Z,96135.88
2022-10-23T04:01:53.761Z,96139.94
2022-10-23T04:04:20.425Z,96132.56
2022-10-23T04:06:47.639Z,96060.34
2022-10-23T04:09:14.433Z,96094.31
2022-10-23T04:11:41.482Z,96126.56
2022-10-23T04:14:11.967Z,96088.50
2022-10-23T04:16:38.831Z,96129.31
2022-10-23T04:19:06.398Z,96136.16
2022-10-23T04:21:32.989Z,96111.91
2022-10-23T04:24:00.617Z,96127.31
2022-10-23T04:26:28.164Z,96129.03
2022-10-23T04:28:54.733Z,96104.81
2022-10-23T04:31:21.302Z,96121.00
2022-10-23T04:33:48.318Z,96114.56
2022-10-23T04:36:31.710Z,96115.47
2022-10-23T04:39:16.866Z,96113.53
2022-10-23T04:41:43.404Z,96125.03
2022-10-23T04:44:10.009Z,96107.09
2022-10-23T04:46:38.533Z,96115.00
2022-10-23T04:49:05.283Z,96112.25
2022-10-23T04:51:54.626Z,96133.78
2022-10-23T04:54:48.146Z,96128.28
2022-10-23T04:57:26.290Z,96116.63
2022-10-23T05:00:06.419Z,96132.31
2022-10-23T05:02:51.649Z,96122.28
2022-10-23T05:05:19.946Z,96107.41
2022-10-23T05:08:12.262Z,96089.16
2022-10-23T05:11:03.003Z,96075.97
2022-10-23T05:13:29.616Z,96097.91
2022-10-23T05:15:59.018Z,96109.50
2022-10-23T05:18:34.739Z,96085.00
2022-10-23T05:21:26.960Z,96096.06
2022-10-23T05:23:54.738Z,96105.25
2022-10-23T05:26:22.448Z,96085.56
2022-10-23T05:28:51.838Z,96103.59
2022-10-23T05:31:20.773Z,96091.34
2022-10-23T05:33:50.901Z,96092.72
2022-10-23T05:36:20.072Z,96065.16
2022-10-23T05:38:49.907Z,96082.47
2022-10-23T05:41:18.264Z,96092.19
2022-10-23T05:43:46.204Z,96069.28
2022-10-23T05:46:31.539Z,96081.50
2022-10-23T05:49:17.006Z,96085.44
2022-10-23T05:52:13.031Z,96090.06
2022-10-23T05:54:58.055Z,96081.63
2022-10-23T05:58:07.984Z,96078.78
2022-10-23T06:00:54.588Z,96091.97
2022-10-23T06:03:58.465Z,96091.75
2022-10-23T06:06:34.271Z,96089.34
2022-10-23T06:09:01.737Z,96080.69
2022-10-23T06:11:28.590Z,96095.06
2022-10-23T06:14:01.039Z,96106.88
2022-10-23T06:16:27.975Z,96118.00
2022-10-23T06:18:55.052Z,96124.94
2022-10-23T06:21:22.002Z,96073.69
2022-10-23T06:23:50.755Z,96120.28
2022-10-23T06:26:23.551Z,96078.94
2022-10-23T06:28:56.335Z,96103.59
2022-10-23T06:31:26.825Z,96102.66
2022-10-23T06:33:56.118Z,96094.13
2022-10-23T06:36:23.106Z,96106.72
2022-10-23T06:38:52.071Z,96094.78
2022-10-23T06:41:22.050Z,96102.16
2022-10-23T06:43:54.305Z,96101.63
2022-10-23T06:46:28.674Z,96108.25
2022-10-23T06:49:33.903Z,96070.09
2022-10-23T06:52:01.877Z,96079.47
2022-10-23T06:54:28.484Z,96103.47
2022-10-23T06:57:27.627Z,96099.16
2022-10-23T06:59:54.383Z,96102.28
2022-10-23T07:02:21.296Z,96080.88
2022-10-23T07:04:48.255Z,96099.16
2022-10-23T07:07:18.365Z,96093.88
2022-10-23T07:09:47.755Z,96120.50
2022-10-23T07:12:28.378Z,96135.72
2022-10-23T07:15:15.820Z,96052.03
2022-10-23T07:17:43.168Z,96123.00
2022-10-23T07:20:09.826Z,96127.09
2022-10-23T07:22:36.592Z,96115.28
2022-10-23T07:25:10.544Z,96118.13
2022-10-23T07:27:39.191Z,96096.22
2022-10-23T07:30:08.693Z,96101.38
2022-10-23T07:32:45.456Z,96084.34
2022-10-23T07:35:33.012Z,96081.34
2022-10-23T07:38:06.750Z,96086.44
2022-10-23T07:40:37.325Z,96068.19
2022-10-23T07:43:04.850Z,96095.72
2022-10-23T07:45:31.520Z,96089.91
2022-10-23T07:48:05.284Z,96089.53
2022-10-23T07:50:48.717Z,96106.28
2022-10-23T07:53:18.467Z,96108.59
2022-10-23T07:55:57.895Z,96105.69
2022-10-23T07:58:27.715Z,96094.97
2022-10-23T08:01:20.776Z,96095.69
2022-10-23T08:03:47.536Z,96100.84
2022-10-23T08:06:15.434Z,96109.88
2022-10-23T08:08:43.041Z,96089.09
2022-10-23T08:11:13.875Z,96094.75
2022-10-23T08:13:48.523Z,96089.38
2022-10-23T08:16:15.882Z,96087.63
2022-10-23T08:19:01.477Z,96067.53
2022-10-23T08:21:29.284Z,96084.13
2022-10-23T08:23:57.475Z,96083.03
2022-10-23T08:26:25.342Z,96090.63
2022-10-23T08:28:52.948Z,96088.22
2022-10-23T08:31:21.197Z,96079.22
2022-10-23T08:34:18.828Z,96080.34
2022-10-23T08:36:47.337Z,96071.38
2022-10-23T08:39:14.384Z,96076.03
2022-10-23T08:41:53.202Z,96074.28
2022-10-23T08:44:32.478Z,96072.44
2022-10-23T08:47:13.362Z,96079.25
2022-10-23T08:49:56.370Z,96079.53
2022-10-23T08:52:34.488Z,96084.19
2022-10-23T08:55:17.563Z,96084.47
2022-10-23T08:57:59.034Z,96068.03
2022-10-23T09:00:25.788Z,96067.88
2022-10-23T09:02:55.318Z,96053.59
2022-10-23T09:05:21.899Z,96057.06
2022-10-23T09:07:57.462Z,96050.91
2022-10-23T09:10:48.101Z,96049.13
2022-10-23T09:13:45.319Z,96048.06
2022-10-23T09:16:19.547Z,96041.03
2022-10-23T09:18:48.233Z,96042.94
2022-10-23T09:21:14.869Z,96041.88
2022-10-23T09:23:42.022Z,96044.28
2022-10-23T09:26:17.089Z,96035.13
2022-10-23T09:28:51.956Z,96049.19
2022-10-23T09:31:19.699Z,96050.91
2022-10-23T09:34:01.195Z,96043.28
2022-10-23T09:36:29.500Z,96035.69
2022-10-23T09:39:00.381Z,96036.66
2022-10-23T09:41:39.258Z,96026.66
2022-10-23T09:44:08.846Z,96034.91
2022-10-23T09:46:43.249Z,96037.22
2022-10-23T09:49:35.658Z,96024.34
2022-10-23T09:52:07.032Z,96030.53
2022-10-23T09:54:38.138Z,96025.06
2022-10-23T09:57:22.416Z,96014.50
2022-10-23T10:00:01.897Z,96019.09
2022-10-23T10:02:38.491Z,96012.88
2022-10-23T10:05:33.292Z,96008.75
2022-10-23T10:08:44.203Z,96013.41
2022-10-23T10:11:20.498Z,96007.84
2022-10-23T10:14:11.889Z,95998.00
2022-10-23T10:16:57.407Z,96002.47
2022-10-23T10:19:42.732Z,96010.53
2022-10-23T10:22:28.418Z,96002.72
2022-10-23T10:25:21.602Z,95998.50
2022-10-23T10:28:06.705Z,95992.91
2022-10-23T10:30:43.194Z,95988.66
2022-10-23T10:33:21.960Z,95985.25
2022-10-23T10:36:02.292Z,95991.28
2022-10-23T10:39:03.726Z,95980.59
2022-10-23T10:42:04.194Z,95986.41
2022-10-23T10:45:08.066Z,95989.38
2022-10-23T10:47:51.678Z,95979.34
2022-10-23T10:50:52.241Z,95978.72
2022-10-23T10:54:03.893Z,95959.25
2022-10-23T10:56:35.109Z,95950.75
2022-10-23T10:59:06.763Z,95952.28
2022-10-23T11:01:41.653Z,95939.28
2022-10-23T11:04:24.818Z,95940.16
2022-10-23T11:06:53.976Z,95930.84
2022-10-23T11:09:25.026Z,95936.78
2022-10-23T11:11:51.616Z,95936.84
2022-10-23T11:14:21.900Z,95932.50
2022-10-23T11:16:51.888Z,95931.91
2022-10-23T11:19:27.511Z,95932.03
2022-10-23T11:22:02.493Z,95929.94
2022-10-23T11:24:57.215Z,95916.97
2022-10-23T11:27:52.196Z,95920.66
2022-10-23T11:30:23.995Z,95912.72
2022-10-23T11:33:24.522Z,95913.53
2022-10-23T11:36:01.165Z,95916.44
2022-10-23T11:38:37.338Z,95907.06
2022-10-23T11:41:16.282Z,95899.81
2022-10-23T11:43:57.357Z,95907.19
2022-10-23T11:46:25.334Z,95907.19
2022-10-23T11:48:54.016Z,95905.03
2022-10-23T11:51:34.381Z,95902.25
2022-10-23T11:54:10.241Z,95895.81
2022-10-23T11:57:10.810Z,95886.47
2022-10-23T11:59:49.506Z,95877.16
2022-10-23T12:02:38.227Z,95883.72
2022-10-23T12:05:25.997Z,95872.91
2022-10-23T12:08:06.763Z,95887.44
2022-10-23T12:10:36.891Z,95880.25
2022-10-23T12:13:06.047Z,95886.78
2022-10-23T12:15:34.887Z,95888.97
2022-10-23T12:18:15.045Z,95877.50
2022-10-23T12:20:56.683Z,95875.38
2022-10-23T12:23:48.092Z,95855.81
2022-10-23T12:26:45.775Z,95857.41
2022-10-23T12:29:30.821Z,95860.38
2022-10-23T12:32:30.896Z,95873.47
2022-10-23T12:35:03.521Z,95860.47
2022-10-23T12:37:57.612Z,95854.69
2022-10-23T12:40:30.013Z,95847.47
2022-10-23T12:42:59.499Z,95842.44
2022-10-23T12:45:29.530Z,95847.53
2022-10-23T12:47:56.394Z,95838.88
2022-10-23T12:50:29.599Z,95834.56
2022-10-23T12:53:03.769Z,95837.50
2022-10-23T12:55:52.399Z,95836.09
2022-10-23T12:58:25.383Z,95829.59
2022-10-23T13:00:58.833Z,95834.66
2022-10-23T13:03:27.505Z,95837.63
2022-10-23T13:05:58.585Z,95830.41
2022-10-23T13:08:33.951Z,95830.41
2022-10-23T13:11:21.004Z,95840.53
2022-10-23T13:13:50.339Z,95830.44
2022-10-23T13:16:22.310Z,95824.72
2022-10-23T13:18:49.132Z,95815.31
2022-10-23T13:21:23.108Z,95811.72
2022-10-23T13:23:51.213Z,95818.97
2022-10-23T13:26:25.643Z,95819.03
2022-10-23T13:28:52.613Z,95813.97
2022-10-23T13:31:25.308Z,95813.97
2022-10-23T13:34:01.397Z,95814.00
2022-10-23T13:36:31.075Z,95802.41
2022-10-23T13:39:09.622Z,95813.31
2022-10-23T13:41:46.882Z,95808.97
2022-10-23T13:44:16.071Z,95808.94
2022-10-23T13:46:43.586Z,95810.38
2022-10-23T13:49:10.454Z,95803.19
2022-10-23T13:51:42.642Z,95800.31
2022-10-23T13:54:28.981Z,95801.00
2022-10-23T13:56:56.731Z,95794.50
2022-10-23T13:59:23.951Z,95795.25
2022-10-23T14:01:51.178Z,95790.91
2022-10-23T14:04:18.678Z,95809.03
2022-10-23T14:06:45.522Z,95802.50
2022-10-23T14:09:14.676Z,95796.00
2022-10-23T14:11:41.959Z,95795.97
2022-10-23T14:14:08.771Z,95806.81
2022-10-23T14:16:35.512Z,95807.53
2022-10-23T14:19:02.135Z,95803.19
2022-10-23T14:21:28.676Z,95805.34
2022-10-23T14:23:55.222Z,95793.69
2022-10-23T14:26:24.429Z,95814.06
2022-10-23T14:28:55.559Z,95801.75
2022-10-23T14:31:22.617Z,95801.03
2022-10-23T14:34:00.719Z,95787.31
2022-10-23T14:36:34.312Z,95788.72
2022-10-23T14:39:10.076Z,95792.31
2022-10-23T14:41:37.295Z,95787.97
2022-10-23T14:44:03.858Z,95787.97
2022-10-23T14:46:40.013Z,95785.09
2022-10-23T14:49:27.013Z,95780.72
2022-10-23T14:51:53.532Z,95782.16
2022-10-23T14:54:20.120Z,95777.00
2022-10-23T14:57:02.390Z,95781.41
2022-10-23T14:59:37.076Z,95777.72
2022-10-23T15:02:12.752Z,95768.28
2022-10-23T15:04:40.608Z,95766.78
2022-10-23T15:07:12.196Z,95771.16
2022-10-23T15:09:56.137Z,95767.53
2022-10-23T15:12:28.045Z,95767.50
2022-10-23T15:14:54.556Z,95768.97
2022-10-23T15:17:23.765Z,95772.56
2022-10-23T15:19:50.611Z,95768.97
2022-10-23T15:22:19.489Z,95774.72
2022-10-23T15:24:47.871Z,95766.72
2022-10-23T15:27:22.911Z,95762.34
2022-10-23T15:29:54.632Z,95763.81
2022-10-23T15:32:21.244Z,95756.56
2022-10-23T15:34:52.665Z,95747.81
2022-10-23T15:37:24.625Z,95750.75
2022-10-23T15:40:01.395Z,95761.56
2022-10-23T15:42:29.686Z,95756.47
2022-10-23T15:44:56.217Z,95746.28
2022-10-23T15:47:25.559Z,95749.19
2022-10-23T15:49:52.243Z,95743.31
2022-10-23T15:52:18.789Z,95746.88
2022-10-23T15:54:45.359Z,95746.91
2022-10-23T15:57:16.666Z,95739.59
2022-10-23T15:59:43.157Z,95748.97
2022-10-23T16:02:19.188Z,95751.78
2022-10-23T16:04:45.787Z,95740.94
2022-10-23T16:07:18.019Z,95734.34
2022-10-23T16:09:47.322Z,95739.41
2022-10-23T16:12:25.351Z,95738.59
2022-10-23T16:14:55.786Z,95738.59
2022-10-23T16:17:31.338Z,95737.88
2022-10-23T16:20:00.779Z,95738.53
2022-10-23T16:22:27.684Z,95737.16
2022-10-23T16:24:54.623Z,95733.41
2022-10-23T16:27:27.346Z,95741.38
2022-10-23T16:29:54.010Z,95711.50
2022-10-23T16:32:20.679Z,95729.66
2022-10-23T16:34:47.479Z,95718.06
2022-10-23T16:37:14.104Z,95731.03
2022-10-23T16:40:05.550Z,95732.41
2022-10-23T16:43:10.741Z,95728.66
2022-10-23T16:45:43.455Z,95729.31
2022-10-23T16:48:10.101Z,95743.75
2022-10-23T16:53:11.868Z,95718.38
2022-10-23T16:55:40.666Z,95724.75
2022-10-23T16:58:07.494Z,95729.88
2022-10-23T17:00:35.248Z,95746.34
2022-10-23T17:03:04.450Z,95734.84
2022-10-23T17:05:34.974Z,95733.25
2022-10-23T17:08:01.974Z,95739.75
2022-10-23T17:10:28.977Z,95733.88
2022-10-23T17:12:55.754Z,95738.94
2022-10-23T17:15:23.859Z,95746.00
2022-10-23T17:17:50.596Z,95749.56
2022-10-23T17:20:17.375Z,95753.13
2022-10-23T17:22:43.983Z,95772.44
2022-10-23T17:25:10.632Z,95760.88
2022-10-23T17:27:37.208Z,95748.34
2022-10-23T17:30:07.126Z,95763.41
2022-10-23T17:32:36.581Z,95780.00
2022-10-23T17:35:07.008Z,95771.38
2022-10-23T17:37:35.831Z,95768.50
2022-10-23T17:40:02.713Z,95740.63
2022-10-23T17:42:39.971Z,95765.34
2022-10-23T17:45:07.147Z,95770.38
2022-10-23T17:47:40.174Z,95754.19
2022-10-23T17:50:11.216Z,95767.22
2022-10-23T17:52:48.106Z,95751.94
2022-10-23T17:55:27.517Z,95772.94
2022-10-23T17:58:01.996Z,95785.81
2022-10-23T18:00:49.231Z,95789.47
2022-10-23T18:03:20.066Z,95746.66
2022-10-23T18:06:07.850Z,95724.03
2022-10-23T18:11:55.276Z,95761.25
2022-10-23T18:14:46.581Z,95755.28
2022-10-23T18:17:16.173Z,95763.81
2022-10-23T18:19:42.821Z,95769.50
2022-10-23T18:22:09.480Z,95770.19
2022-10-23T18:24:37.920Z,95765.03
2022-10-23T18:27:04.511Z,95785.31
2022-10-23T18:29:31.060Z,95770.75
2022-10-23T18:31:57.814Z,95789.53
2022-10-23T18:34:27.579Z,95773.63
2022-10-23T18:36:54.665Z,95785.09
2022-10-23T18:39:26.010Z,95774.84
2022-10-23T18:41:55.900Z,95769.22
2022-10-23T18:44:30.577Z,95777.03
2022-10-23T18:47:07.362Z,95756.59
2022-10-23T18:49:33.946Z,95773.41
2022-10-23T18:52:00.566Z,95771.53
2022-10-23T18:54:27.366Z,95756.63
2022-10-23T18:56:53.921Z,95783.34
2022-10-23T18:59:22.298Z,95774.03
2022-10-23T19:01:49.580Z,95762.47
2022-10-23T19:04:17.830Z,95758.06
2022-10-23T19:06:46.389Z,95757.78
2022-10-23T19:09:13.900Z,95756.28
2022-10-23T19:11:41.949Z,95755.47
2022-10-23T19:14:08.489Z,95761.16
2022-10-23T19:17:01.610Z,95767.09
2022-10-23T19:19:36.044Z,95779.94
2022-10-23T19:22:04.214Z,95787.81
2022-10-23T19:24:36.699Z,95784.84
2022-10-23T19:27:04.082Z,95755.56
2022-10-23T19:29:31.465Z,95783.94
2022-10-23T19:31:58.468Z,95785.47
2022-10-23T19:34:25.302Z,95762.06
2022-10-23T19:36:53.433Z,95773.13
2022-10-23T19:39:20.356Z,95774.38
2022-10-23T19:41:47.002Z,95767.78
2022-10-23T19:44:15.040Z,95780.13
2022-10-23T19:46:41.784Z,95785.91
2022-10-23T19:49:09.051Z,95780.44
2022-10-23T19:51:35.968Z,95785.72
2022-10-23T19:54:02.667Z,95792.00
2022-10-23T19:56:29.299Z,95780.47
2022-10-23T19:58:55.933Z,95768.78
2022-10-23T20:01:25.184Z,95779.66
2022-10-23T20:03:52.206Z,95752.56
2022-10-23T20:06:21.676Z,95768.47
2022-10-23T20:08:48.814Z,95767.78
2022-10-23T20:11:20.382Z,95783.72
2022-10-23T20:13:48.340Z,95780.00
2022-10-23T20:16:27.927Z,95755.34
2022-10-23T20:18:54.861Z,95780.91
2022-10-23T20:21:22.355Z,95774.97
2022-10-23T20:23:49.119Z,95777.84
2022-10-23T20:26:18.806Z,95769.16
2022-10-23T20:28:47.096Z,95753.88
2022-10-23T20:31:15.145Z,95779.38
2022-10-23T20:33:42.183Z,95786.47
2022-10-23T20:36:17.661Z,95783.69
2022-10-23T20:38:44.203Z,95775.47
2022-10-23T20:41:10.804Z,95785.53
2022-10-23T20:43:38.315Z,95799.09
2022-10-23T20:46:06.628Z,95809.44
2022-10-23T20:48:40.288Z,95813.22
2022-10-23T20:51:16.541Z,95839.38
2022-10-23T20:53:44.789Z,95862.19
2022-10-23T20:56:29.854Z,95877.88
2022-10-23T20:59:01.511Z,95902.41
2022-10-23T21:01:29.550Z,95893.69
2022-10-23T21:03:57.712Z,95916.22
2022-10-23T21:06:26.986Z,95914.88
2022-10-23T21:08:58.586Z,95922.78
2022-10-23T21:11:25.993Z,95928.34
2022-10-23T21:13:53.041Z,95953.16
2022-10-23T21:16:26.098Z,95957.41
2022-10-23T21:18:56.741Z,95960.50
2022-10-23T21:21:24.409Z,95962.00
2022-10-23T21:23:53.399Z,95927.00
2022-10-23T21:26:22.546Z,95942.38
2022-10-23T21:28:56.276Z,95937.47
2022-10-23T21:31:27.725Z,95936.28
2022-10-23T21:33:54.289Z,95928.25
2022-10-23T21:36:23.796Z,95932.09
2022-10-23T21:38:52.857Z,95931.44
2022-10-23T21:41:25.007Z,95971.03
2022-10-23T21:43:57.458Z,95932.97
2022-10-23T21:46:25.793Z,95957.78
2022-10-23T21:48:53.010Z,95973.91
2022-10-23T21:51:26.101Z,95988.34
2022-10-23T21:53:56.370Z,95991.81
2022-10-23T21:56:28.369Z,95982.19
2022-10-23T21:58:55.486Z,95980.03
2022-10-23T22:01:22.269Z,95993.53
2022-10-23T22:03:49.699Z,95993.91
2022-10-23T22:06:20.002Z,96000.22
2022-10-23T22:08:46.722Z,96011.03
2022-10-23T22:11:14.631Z,96021.31
2022-10-23T22:13:42.935Z,96018.91
2022-10-23T22:16:10.490Z,96007.06
2022-10-23T22:18:37.502Z,96027.06
2022-10-23T22:21:08.889Z,96023.38
2022-10-23T22:23:36.139Z,96030.63
2022-10-23T22:26:08.140Z,96029.22
2022-10-23T22:28:34.771Z,96027.00
2022-10-23T22:31:01.851Z,96028.44
2022-10-23T22:33:29.103Z,96035.34
2022-10-23T22:36:03.135Z,96051.44
2022-10-23T22:38:31.681Z,96059.53
2022-10-23T22:41:02.099Z,96048.84
2022-10-23T22:43:29.389Z,96060.00
2022-10-23T22:46:07.849Z,96067.84
2022-10-23T22:48:35.680Z,96063.66
2022-10-23T22:51:03.241Z,96064.66
2022-10-23T22:53:30.000Z,96025.25
2022-10-23T22:55:57.410Z,96077.81
2022-10-23T22:58:24.934Z,96072.84
2022-10-23T23:00:53.994Z,96075.94
2022-10-23T23:03:20.628Z,96052.44
2022-10-23T23:05:47.943Z,96093.38
2022-10-23T23:08:15.042Z,96077.03
2022-10-23T23:10:41.760Z,96046.19
2022-10-23T23:13:08.356Z,96080.53
2022-10-23T23:15:40.341Z,96081.63
2022-10-23T23:18:06.957Z,96089.56
2022-10-23T23:20:34.485Z,96084.03
2022-10-23T23:23:01.025Z,96084.94
2022-10-23T23:25:27.700Z,96080.69
2022-10-23T23:27:54.877Z,96049.50
2022-10-23T23:30:21.712Z,96067.75
2022-10-23T23:32:51.147Z,96082.44
2022-10-23T23:35:19.486Z,96070.81
2022-10-23T23:37:46.602Z,96073.75
2022-10-23T23:40:14.008Z,96075.22
2022-10-23T23:42:40.846Z,96084.78
2022-10-23T23:45:14.513Z,96076.03
2022-10-23T23:47:41.700Z,96100.75
2022-10-23T23:50:10.231Z,96088.59
2022-10-23T23:52:36.827Z,96094.31
2022-10-23T23:55:04.185Z,96087.75
2022-10-23T23:57:30.875Z,96060.75
2022-10-23T23:59:57.419Z,96089.13
